^^
Datos históricos de la estación: Murcia-Puente Tocinos
Diario Informe para Julio 28, 2021 Unidades:  Ambas    Ingés   Métrico
Diario Semanal Mensual Anual
  Máxima: Mínima: Promedio:
Temperatura: 86.4 °F /  30.2 °C 70.9 °F /  21.6 °C 78.8 °F /  26 °C
Punto de rocio: 71.2 °F /  21.8 °C 63.7 °F /  17.6 °C 67.3 °F /  19.6 °C
Humedad: 85% 50.8% 69%
Velocidad viento: 12.3mph /  19.8km/h - 5.6mph /  9km/h
Racha viento: 23.5mph /  37.8km/h - -
Viento- - ENE
Presión: 29.9 in /  1013.9 hPa 29.8 in /  1010.7 hPa -
Precipitación: 0 in /  0.0 mm    
 
 
Tabla de datos para Julio 28, 2021
Hora Temperatura Punto de rocio Presión Viento Velocidad viento Racha viento Humedad Intensidad lluvia(por hora) Nubes
00:04 75.6 °F /  24.2 °C 68.5 °F /  20.3 °C 29.9in /  1011.8hPa NE 5.9mph /  9.5km/h 8.1mph /  13km/h 79% 0in /  0.0mm
00:09 75.6 °F /  24.2 °C 68.5 °F /  20.3 °C 29.9in /  1011.8hPa NNE 5.2mph /  8.4km/h 8mph /  12.9km/h 79% 0in /  0.0mm
00:14 75.4 °F /  24.1 °C 68.4 °F /  20.2 °C 29.9in /  1011.8hPa NNE 4.7mph /  7.6km/h 7mph /  11.3km/h 79% 0in /  0.0mm
00:19 75.4 °F /  24.1 °C 68.5 °F /  20.3 °C 29.9in /  1011.8hPa NNE 4.5mph /  7.2km/h 5.9mph /  9.5km/h 79.5% 0in /  0.0mm
00:24 75.4 °F /  24.1 °C 68.7 °F /  20.4 °C 29.9in /  1011.9hPa NNE 4.3mph /  6.9km/h 6mph /  9.7km/h 80% 0in /  0.0mm
00:29 75.4 °F /  24.1 °C 68.7 °F /  20.4 °C 29.9in /  1011.9hPa NE 3.9mph /  6.3km/h 6mph /  9.7km/h 80% 0in /  0.0mm
00:34 75.4 °F /  24.1 °C 68.7 °F /  20.4 °C 29.9in /  1011.9hPa NNE 3.6mph /  5.8km/h 6mph /  9.7km/h 80% 0in /  0.0mm
00:39 75.4 °F /  24.1 °C 68.7 °F /  20.4 °C 29.9in /  1011.9hPa NNE 3.3mph /  5.3km/h 6mph /  9.7km/h 80% 0in /  0.0mm
00:44 75.2 °F /  24 °C 68.5 °F /  20.3 °C 29.9in /  1011.9hPa NNE 3.1mph /  5km/h 5.2mph /  8.4km/h 80% 0in /  0.0mm
00:49 75 °F /  23.9 °C 68.7 °F /  20.4 °C 29.9in /  1011.9hPa NE 3mph /  4.8km/h 5mph /  8km/h 80.8% 0in /  0.0mm
00:54 75 °F /  23.9 °C 68.7 °F /  20.4 °C 29.9in /  1011.9hPa NE 2.9mph /  4.7km/h 5mph /  8km/h 81% 0in /  0.0mm
00:59 75 °F /  23.9 °C 68.7 °F /  20.4 °C 29.9in /  1011.9hPa NE 2mph /  3.2km/h 4.6mph /  7.4km/h 81% 0in /  0.0mm
01:04 75 °F /  23.9 °C 68.7 °F /  20.4 °C 29.9in /  1011.9hPa ENE 1.4mph /  2.2km/h 5mph /  8km/h 81% 0in /  0.0mm
01:09 75 °F /  23.9 °C 69.1 °F /  20.6 °C 29.9in /  1011.9hPa NE 1.7mph /  2.8km/h 5.2mph /  8.4km/h 81.7% 0in /  0.0mm
01:14 74.8 °F /  23.8 °C 69.1 °F /  20.6 °C 29.9in /  1011.9hPa NE 2mph /  3.2km/h 5mph /  8km/h 82% 0in /  0.0mm
01:19 74.8 °F /  23.8 °C 69.1 °F /  20.6 °C 29.9in /  1011.9hPa NE 2mph /  3.2km/h 3.6mph /  5.8km/h 82% 0in /  0.0mm
01:24 74.8 °F /  23.8 °C 69.1 °F /  20.6 °C 29.9in /  1012.0hPa North 2mph /  3.2km/h 4mph /  6.4km/h 82% 0in /  0.0mm
01:29 74.8 °F /  23.8 °C 69.1 °F /  20.6 °C 29.9in /  1012.0hPa North 2mph /  3.2km/h 3mph /  4.8km/h 82% 0in /  0.0mm
01:34 74.7 °F /  23.7 °C 68.9 °F /  20.5 °C 29.9in /  1012.0hPa North 2mph /  3.2km/h 3mph /  4.8km/h 82% 0in /  0.0mm
01:39 74.7 °F /  23.7 °C 68.7 °F /  20.4 °C 29.9in /  1012.0hPa North 1.9mph /  3km/h 4.3mph /  6.9km/h 82% 0in /  0.0mm
01:44 74.7 °F /  23.7 °C 68.7 °F /  20.4 °C 29.9in /  1012.0hPa NNO 1.8mph /  2.9km/h 5mph /  8km/h 82% 0in /  0.0mm
01:49 74.7 °F /  23.7 °C 68.7 °F /  20.4 °C 29.9in /  1012.0hPa NNO 1.9mph /  3.1km/h 5mph /  8km/h 82% 0in /  0.0mm
01:54 74.5 °F /  23.6 °C 68.5 °F /  20.3 °C 29.9in /  1012.0hPa NNO 2mph /  3.2km/h 3mph /  4.8km/h 82% 0in /  0.0mm
01:59 74.5 °F /  23.6 °C 68.5 °F /  20.3 °C 29.9in /  1011.9hPa NNO 1.9mph /  3km/h 3.6mph /  5.8km/h 82% 0in /  0.0mm
02:04 74.5 °F /  23.6 °C 68.7 °F /  20.4 °C 29.9in /  1011.9hPa NNO 1.8mph /  2.9km/h 4mph /  6.4km/h 82.4% 0in /  0.0mm
02:09 74.3 °F /  23.5 °C 68.5 °F /  20.3 °C 29.9in /  1011.9hPa NNO 1.8mph /  2.9km/h 3.6mph /  5.8km/h 82.2% 0in /  0.0mm
02:14 74.1 °F /  23.4 °C 68.7 °F /  20.4 °C 29.9in /  1011.8hPa ENE 1.8mph /  2.9km/h 4mph /  6.4km/h 83% 0in /  0.0mm
02:19 74.1 °F /  23.4 °C 68.5 °F /  20.3 °C 29.9in /  1011.8hPa Este 2.2mph /  3.5km/h 4.6mph /  7.4km/h 83% 0in /  0.0mm
02:24 73.8 °F /  23.2 °C 67.8 °F /  19.9 °C 29.9in /  1011.8hPa Este 2.4mph /  3.9km/h 5.2mph /  8.4km/h 81.4% 0in /  0.0mm
02:29 73.4 °F /  23 °C 66.4 °F /  19.1 °C 29.9in /  1011.7hPa Este 2.7mph /  4.3km/h 5mph /  8km/h 78.7% 0in /  0.0mm
02:34 72.9 °F /  22.7 °C 64.9 °F /  18.3 °C 29.9in /  1011.7hPa Este 2.9mph /  4.7km/h 5mph /  8km/h 76.3% 0in /  0.0mm
02:39 72.9 °F /  22.7 °C 64.8 °F /  18.2 °C 29.9in /  1011.7hPa Este 2.9mph /  4.6km/h 5mph /  8km/h 76% 0in /  0.0mm
02:44 72.7 °F /  22.6 °C 64.8 °F /  18.2 °C 29.9in /  1011.6hPa Este 2.9mph /  4.7km/h 3.6mph /  5.8km/h 76% 0in /  0.0mm
02:49 72.9 °F /  22.7 °C 64.8 °F /  18.2 °C 29.9in /  1011.6hPa ENE 2.2mph /  3.6km/h 4mph /  6.4km/h 76% 0in /  0.0mm
02:54 72.9 °F /  22.7 °C 64.6 °F /  18.1 °C 29.9in /  1011.6hPa ENE 1.8mph /  2.9km/h 2.9mph /  4.7km/h 75.2% 0in /  0.0mm
02:59 72.9 °F /  22.7 °C 64.4 °F /  18 °C 29.9in /  1011.5hPa ENE 1.8mph /  2.9km/h 4.6mph /  7.4km/h 75% 0in /  0.0mm
03:04 72.7 °F /  22.6 °C 64.6 °F /  18.1 °C 29.9in /  1011.5hPa ENE 1.8mph /  2.9km/h 5mph /  8km/h 75.7% 0in /  0.0mm
03:09 72.7 °F /  22.6 °C 64.8 °F /  18.2 °C 29.9in /  1011.5hPa ENE 1.8mph /  2.9km/h 3.6mph /  5.8km/h 76% 0in /  0.0mm
03:14 72.7 °F /  22.6 °C 64.8 °F /  18.2 °C 29.9in /  1011.5hPa ENE 1.8mph /  2.9km/h 4mph /  6.4km/h 76% 0in /  0.0mm
03:19 72.7 °F /  22.6 °C 64.4 °F /  18 °C 29.9in /  1011.5hPa Este 1.9mph /  3.1km/h 4.6mph /  7.4km/h 75.3% 0in /  0.0mm
03:24 72.7 °F /  22.6 °C 64.2 °F /  17.9 °C 29.9in /  1011.5hPa Este 2mph /  3.2km/h 5mph /  8km/h 75% 0in /  0.0mm
03:29 72.5 °F /  22.5 °C 64 °F /  17.8 °C 29.9in /  1011.4hPa Este 2mph /  3.2km/h 4.6mph /  7.4km/h 75% 0in /  0.0mm
03:34 72.3 °F /  22.4 °C 63.9 °F /  17.7 °C 29.9in /  1011.4hPa Este 2mph /  3.2km/h 5mph /  8km/h 75% 0in /  0.0mm
03:39 72.3 °F /  22.4 °C 63.7 °F /  17.6 °C 29.9in /  1011.4hPa ESE 2mph /  3.2km/h 4mph /  6.4km/h 74.4% 0in /  0.0mm
03:44 72.3 °F /  22.4 °C 63.9 °F /  17.7 °C 29.9in /  1011.2hPa Este 2mph /  3.2km/h 3.5mph /  5.6km/h 74.7% 0in /  0.0mm
03:49 72.5 °F /  22.5 °C 64 °F /  17.8 °C 29.9in /  1011.2hPa ENE 2mph /  3.2km/h 3.6mph /  5.8km/h 75% 0in /  0.0mm
03:54 72.5 °F /  22.5 °C 64.2 °F /  17.9 °C 29.9in /  1011.2hPa ENE 2mph /  3.2km/h 4mph /  6.4km/h 75.3% 0in /  0.0mm
03:59 72.5 °F /  22.5 °C 64.6 °F /  18.1 °C 29.9in /  1011.2hPa ENE 2mph /  3.2km/h 4mph /  6.4km/h 76.2% 0in /  0.0mm
04:04 72.7 °F /  22.6 °C 65.1 °F /  18.4 °C 29.9in /  1011.2hPa NE 2mph /  3.2km/h 4mph /  6.4km/h 77% 0in /  0.0mm
04:09 72.7 °F /  22.6 °C 65.3 °F /  18.5 °C 29.9in /  1011.2hPa NE 1.9mph /  3km/h 3.6mph /  5.8km/h 77.4% 0in /  0.0mm
04:14 72.9 °F /  22.7 °C 66 °F /  18.9 °C 29.9in /  1011.2hPa NE 1.8mph /  2.9km/h 4.6mph /  7.4km/h 79% 0in /  0.0mm
04:19 72.9 °F /  22.7 °C 66.4 °F /  19.1 °C 29.9in /  1011.2hPa NNE 2.2mph /  3.5km/h 5mph /  8km/h 80% 0in /  0.0mm
04:24 72.7 °F /  22.6 °C 66.4 °F /  19.1 °C 29.9in /  1011.2hPa North 2.4mph /  3.9km/h 5mph /  8km/h 80.3% 0in /  0.0mm
04:29 72.7 °F /  22.6 °C 66.6 °F /  19.2 °C 29.9in /  1011.2hPa North 2.1mph /  3.3km/h 4mph /  6.4km/h 81% 0in /  0.0mm
04:34 72.3 °F /  22.4 °C 66.4 °F /  19.1 °C 29.9in /  1011.2hPa North 1.8mph /  2.9km/h 3.6mph /  5.8km/h 81.2% 0in /  0.0mm
04:39 72.3 °F /  22.4 °C 66.6 °F /  19.2 °C 29.9in /  1011.2hPa North 1.8mph /  2.9km/h 4mph /  6.4km/h 82% 0in /  0.0mm
04:44 72.1 °F /  22.3 °C 66.6 °F /  19.2 °C 29.9in /  1011.1hPa North 1.8mph /  2.9km/h 4mph /  6.4km/h 82.7% 0in /  0.0mm
04:49 72 °F /  22.2 °C 66.6 °F /  19.2 °C 29.9in /  1011.1hPa North 1.6mph /  2.5km/h 2.4mph /  3.9km/h 83% 0in /  0.0mm
04:54 72 °F /  22.2 °C 66.6 °F /  19.2 °C 29.9in /  1011.1hPa North 1.4mph /  2.2km/h 2.3mph /  3.7km/h 83.4% 0in /  0.0mm
04:59 71.8 °F /  22.1 °C 66.7 °F /  19.3 °C 29.9in /  1011.1hPa North 1.4mph /  2.2km/h 3.5mph /  5.6km/h 84% 0in /  0.0mm
05:04 71.8 °F /  22.1 °C 66.7 °F /  19.3 °C 29.9in /  1011.1hPa North 1.4mph /  2.2km/h 3.5mph /  5.6km/h 84% 0in /  0.0mm
05:09 71.8 °F /  22.1 °C 66.9 °F /  19.4 °C 29.9in /  1011.1hPa North 1.6mph /  2.6km/h 3mph /  4.8km/h 84.7% 0in /  0.0mm
05:14 71.8 °F /  22.1 °C 66.9 °F /  19.4 °C 29.9in /  1011.0hPa North 1.8mph /  2.9km/h 2.4mph /  3.9km/h 85% 0in /  0.0mm
05:19 71.8 °F /  22.1 °C 66.9 °F /  19.4 °C 29.9in /  1011.0hPa North 1.6mph /  2.5km/h 2.4mph /  3.9km/h 85% 0in /  0.0mm
05:24 71.8 °F /  22.1 °C 66.9 °F /  19.4 °C 29.9in /  1011.0hPa North 1.4mph /  2.2km/h 2.3mph /  3.7km/h 85% 0in /  0.0mm
05:29 71.6 °F /  22 °C 66.7 °F /  19.3 °C 29.9in /  1011.0hPa North 0.6mph /  1km/h 2mph /  3.2km/h 85% 0in /  0.0mm
05:34 71.4 °F /  21.9 °C 66.7 °F /  19.3 °C 29.9in /  1011.0hPa Calm   3.5mph /  5.6km/h 85% 0in /  0.0mm
05:39 71.4 °F /  21.9 °C 66.4 °F /  19.1 °C 29.9in /  1011.0hPa ESE 1.1mph /  1.7km/h 3.5mph /  5.6km/h 84.1% 0in /  0.0mm
05:44 71.4 °F /  21.9 °C 66.4 °F /  19.1 °C 29.9in /  1010.8hPa ESE 1.8mph /  2.9km/h 3mph /  4.8km/h 84% 0in /  0.0mm
05:49 71.2 °F /  21.8 °C 66.2 °F /  19 °C 29.9in /  1010.8hPa SE 0.7mph /  1.1km/h 2.9mph /  4.7km/h 84% 0in /  0.0mm
05:54 71.2 °F /  21.8 °C 66.2 °F /  19 °C 29.9in /  1010.8hPa Calm   3.6mph /  5.8km/h 84% 0in /  0.0mm
05:59 71.2 °F /  21.8 °C 66.2 °F /  19 °C 29.9in /  1010.8hPa ESE 1.2mph /  1.9km/h 4mph /  6.4km/h 84% 0in /  0.0mm
06:04 71.2 °F /  21.8 °C 66.2 °F /  19 °C 29.9in /  1010.8hPa ESE 1.8mph /  2.9km/h 2mph /  3.2km/h 84% 0in /  0.0mm
06:09 71.2 °F /  21.8 °C 66.2 °F /  19 °C 29.9in /  1010.8hPa ESE 0.7mph /  1.1km/h   84% 0in /  0.0mm
06:14 71.2 °F /  21.8 °C 66.2 °F /  19 °C 29.8in /  1010.7hPa Calm   2.4mph /  3.9km/h 84% 0in /  0.0mm
06:19 71.2 °F /  21.8 °C 66 °F /  18.9 °C 29.8in /  1010.7hPa Calm   2.9mph /  4.7km/h 83.4% 0in /  0.0mm
06:24 71.1 °F /  21.7 °C 65.7 °F /  18.7 °C 29.9in /  1010.8hPa Calm   2.3mph /  3.7km/h 83% 0in /  0.0mm
06:29 71.1 °F /  21.7 °C 65.7 °F /  18.7 °C 29.9in /  1010.8hPa Calm   2mph /  3.2km/h 83% 0in /  0.0mm
06:34 71.1 °F /  21.7 °C 65.5 °F /  18.6 °C 29.9in /  1010.8hPa Calm     83% 0in /  0.0mm
06:39 70.9 °F /  21.6 °C 65.5 °F /  18.6 °C 29.9in /  1010.8hPa Calm     83% 0in /  0.0mm
06:44 70.9 °F /  21.6 °C 65.5 °F /  18.6 °C 29.9in /  1010.8hPa Calm   2.3mph /  3.7km/h 83% 0in /  0.0mm
06:49 71.1 °F /  21.7 °C 65.8 °F /  18.8 °C 29.9in /  1010.8hPa Calm   2.4mph /  3.9km/h 83.6% 0in /  0.0mm
06:54 71.1 °F /  21.7 °C 65.8 °F /  18.8 °C 29.9in /  1011.0hPa Calm   2.4mph /  3.9km/h 83.3% 0in /  0.0mm
06:59 71.1 °F /  21.7 °C 65.7 °F /  18.7 °C 29.9in /  1011.0hPa ENE 0.9mph /  1.4km/h 2.9mph /  4.7km/h 83% 0in /  0.0mm
07:04 71.1 °F /  21.7 °C 65.7 °F /  18.7 °C 29.9in /  1011.0hPa ESE 1.4mph /  2.2km/h 3.5mph /  5.6km/h 82.9% 0in /  0.0mm
07:09 71.1 °F /  21.7 °C 65.7 °F /  18.7 °C 29.9in /  1011.1hPa ESE 1.4mph /  2.2km/h 3mph /  4.8km/h 83% 0in /  0.0mm
07:14 71.1 °F /  21.7 °C 65.7 °F /  18.7 °C 29.9in /  1011.1hPa ESE 1.4mph /  2.2km/h 2mph /  3.2km/h 83% 0in /  0.0mm
07:19 71.1 °F /  21.7 °C 65.7 °F /  18.7 °C 29.9in /  1011.1hPa ESE 0.6mph /  1km/h 3.6mph /  5.8km/h 83% 0in /  0.0mm
07:24 71.1 °F /  21.7 °C 65.5 °F /  18.6 °C 29.9in /  1011.3hPa Calm   4mph /  6.4km/h 82.8% 0in /  0.0mm
07:29 71.2 °F /  21.8 °C 65.5 °F /  18.6 °C 29.9in /  1011.3hPa SE 1.4mph /  2.2km/h 4.7mph /  7.6km/h 82% 0in /  0.0mm
07:34 71.2 °F /  21.8 °C 65.5 °F /  18.6 °C 29.9in /  1011.3hPa SE 2.4mph /  3.9km/h 5.2mph /  8.4km/h 82% 0in /  0.0mm
07:39 71.2 °F /  21.8 °C 65.5 °F /  18.6 °C 29.9in /  1011.3hPa SSE 2.8mph /  4.5km/h 5.9mph /  9.5km/h 82% 0in /  0.0mm
07:44 71.2 °F /  21.8 °C 65.5 °F /  18.6 °C 29.9in /  1011.3hPa SSE 3.1mph /  5km/h 6.9mph /  11.1km/h 82% 0in /  0.0mm
07:49 71.2 °F /  21.8 °C 65.5 °F /  18.6 °C 29.9in /  1011.3hPa SSE 3.7mph /  5.9km/h 7mph /  11.3km/h 82% 0in /  0.0mm
07:54 71.2 °F /  21.8 °C 65.7 °F /  18.7 °C 29.9in /  1011.4hPa SSE 4mph /  6.5km/h 6mph /  9.7km/h 82.8% 0in /  0.0mm
07:59 71.2 °F /  21.8 °C 65.8 °F /  18.8 °C 29.9in /  1011.4hPa SSE 3.4mph /  5.5km/h 6mph /  9.7km/h 83% 0in /  0.0mm
08:04 71.6 °F /  22 °C 66.2 °F /  19 °C 29.9in /  1011.4hPa SSE 3.1mph /  5km/h 4mph /  6.4km/h 83% 0in /  0.0mm
08:09 72 °F /  22.2 °C 66.2 °F /  19 °C 29.9in /  1011.4hPa Sur 2.7mph /  4.3km/h 4mph /  6.4km/h 82.4% 0in /  0.0mm
08:14 72.1 °F /  22.3 °C 66.4 °F /  19.1 °C 29.9in /  1011.4hPa SSO 2.4mph /  3.9km/h 4.7mph /  7.6km/h 82% 0in /  0.0mm
08:19 72.5 °F /  22.5 °C 66.4 °F /  19.1 °C 29.9in /  1011.4hPa Oeste 2.2mph /  3.5km/h 5mph /  8km/h 81% 0in /  0.0mm
08:24 72.7 °F /  22.6 °C 66.6 °F /  19.2 °C 29.9in /  1011.4hPa OSO 2mph /  3.2km/h 5.2mph /  8.4km/h 80.9% 0in /  0.0mm
08:29 72.9 °F /  22.7 °C 66.2 °F /  19 °C 29.9in /  1011.4hPa SO 2.6mph /  4.2km/h 5.2mph /  8.4km/h 80% 0in /  0.0mm
08:34 73 °F /  22.8 °C 66.4 °F /  19.1 °C 29.9in /  1011.4hPa OSO 3.1mph /  5km/h 6.9mph /  11.1km/h 79.6% 0in /  0.0mm
08:39 73 °F /  22.8 °C 66 °F /  18.9 °C 29.9in /  1011.5hPa OSO 3.7mph /  5.9km/h 8.1mph /  13km/h 78.8% 0in /  0.0mm
08:44 73 °F /  22.8 °C 66.2 °F /  19 °C 29.9in /  1011.5hPa OSO 4mph /  6.5km/h 8mph /  12.9km/h 79% 0in /  0.0mm
08:49 73.2 °F /  22.9 °C 66 °F /  18.9 °C 29.9in /  1011.5hPa OSO 4mph /  6.5km/h 6.2mph /  10km/h 78.3% 0in /  0.0mm
08:54 73.2 °F /  22.9 °C 66 °F /  18.9 °C 29.9in /  1011.6hPa OSO 4mph /  6.5km/h 6.9mph /  11.1km/h 78% 0in /  0.0mm
08:59 73.6 °F /  23.1 °C 66.2 °F /  19 °C 29.9in /  1011.6hPa OSO 4mph /  6.5km/h 7mph /  11.3km/h 78% 0in /  0.0mm
09:04 73.8 °F /  23.2 °C 66.4 °F /  19.1 °C 29.9in /  1011.6hPa SO 4mph /  6.5km/h 6mph /  9.7km/h 78% 0in /  0.0mm
09:09 73.9 °F /  23.3 °C 66.6 °F /  19.2 °C 29.9in /  1011.8hPa SSO 3.4mph /  5.5km/h 6mph /  9.7km/h 78% 0in /  0.0mm
09:14 74.3 °F /  23.5 °C 66.9 °F /  19.4 °C 29.9in /  1011.8hPa Sur 2.9mph /  4.7km/h 5.8mph /  9.3km/h 77.6% 0in /  0.0mm
09:19 74.7 °F /  23.7 °C 66.7 °F /  19.3 °C 29.9in /  1011.8hPa SSO 2.9mph /  4.6km/h 6.2mph /  10km/h 76.3% 0in /  0.0mm
09:24 74.8 °F /  23.8 °C 66.7 °F /  19.3 °C 29.9in /  1011.8hPa OSO 2.9mph /  4.7km/h 6mph /  9.7km/h 76% 0in /  0.0mm
09:29 75.4 °F /  24.1 °C 67.3 °F /  19.6 °C 29.9in /  1011.8hPa SO 2.4mph /  3.8km/h 5mph /  8km/h 76.2% 0in /  0.0mm
09:34 76.3 °F /  24.6 °C 67.5 °F /  19.7 °C 29.9in /  1011.8hPa ESE 2mph /  3.2km/h 4mph /  6.4km/h 74.5% 0in /  0.0mm
09:39 76.8 °F /  24.9 °C 67.3 °F /  19.6 °C 29.9in /  1011.9hPa OSO 1.9mph /  3km/h 4mph /  6.4km/h 72.7% 0in /  0.0mm
09:44 77.2 °F /  25.1 °C 67.1 °F /  19.5 °C 29.9in /  1011.9hPa OSO 1.8mph /  2.9km/h 4.7mph /  7.6km/h 71.2% 0in /  0.0mm
09:49 77.2 °F /  25.1 °C 66.7 °F /  19.3 °C 29.9in /  1011.9hPa Oeste 2.2mph /  3.5km/h 5mph /  8km/h 70.5% 0in /  0.0mm
09:54 77.4 °F /  25.2 °C 66.9 °F /  19.4 °C 29.9in /  1011.9hPa NO 2.4mph /  3.9km/h 5mph /  8km/h 70.5% 0in /  0.0mm
09:59 77.9 °F /  25.5 °C 67.1 °F /  19.5 °C 29.9in /  1011.9hPa ENE 2.4mph /  3.9km/h 5mph /  8km/h 69.4% 0in /  0.0mm
10:04 78.3 °F /  25.7 °C 66.9 °F /  19.4 °C 29.9in /  1011.9hPa Este 2.4mph /  3.9km/h 5mph /  8km/h 68.5% 0in /  0.0mm
10:09 78.4 °F /  25.8 °C 67.1 °F /  19.5 °C 29.9in /  1012.0hPa SO 2.4mph /  3.9km/h 5mph /  8km/h 68.1% 0in /  0.0mm
10:14 78.8 °F /  26 °C 67.1 °F /  19.5 °C 29.9in /  1012.0hPa NNE 2.4mph /  3.9km/h 5mph /  8km/h 67.3% 0in /  0.0mm
10:19 79.3 °F /  26.3 °C 67.1 °F /  19.5 °C 29.9in /  1012.0hPa NE 2.2mph /  3.5km/h 5mph /  8km/h 66.3% 0in /  0.0mm
10:24 79.9 °F /  26.6 °C 66.7 °F /  19.3 °C 29.9in /  1012.0hPa NNE 2mph /  3.2km/h 5.2mph /  8.4km/h 64.5% 0in /  0.0mm
10:29 80.1 °F /  26.7 °C 66.6 °F /  19.2 °C 29.9in /  1012.0hPa North 2.2mph /  3.6km/h 5mph /  8km/h 63.5% 0in /  0.0mm
10:34 80.4 °F /  26.9 °C 66.7 °F /  19.3 °C 29.9in /  1012.0hPa NNE 2.4mph /  3.9km/h 3.6mph /  5.8km/h 63% 0in /  0.0mm
10:39 80.8 °F /  27.1 °C 67.1 °F /  19.5 °C 29.9in /  1012.1hPa Este 2.1mph /  3.3km/h 6.2mph /  10km/h 63% 0in /  0.0mm
10:44 81.1 °F /  27.3 °C 67.3 °F /  19.6 °C 29.9in /  1012.1hPa North 1.8mph /  2.9km/h 6mph /  9.7km/h 63% 0in /  0.0mm
10:49 81.3 °F /  27.4 °C 67.3 °F /  19.6 °C 29.9in /  1012.1hPa NNE 2.5mph /  4.1km/h 6.2mph /  10km/h 62.7% 0in /  0.0mm
10:54 81.5 °F /  27.5 °C 67.3 °F /  19.6 °C 29.9in /  1012.2hPa North 3.1mph /  5km/h 6mph /  9.7km/h 62% 0in /  0.0mm
10:59 81.3 °F /  27.4 °C 66 °F /  18.9 °C 29.9in /  1012.2hPa NE 3.7mph /  5.9km/h 9.2mph /  14.8km/h 59.6% 0in /  0.0mm
11:04 81 °F /  27.2 °C 65.5 °F /  18.6 °C 29.9in /  1012.2hPa NNE 4mph /  6.5km/h 11.5mph /  18.5km/h 59.5% 0in /  0.0mm
11:09 81.1 °F /  27.3 °C 66 °F /  18.9 °C 29.9in /  1012.4hPa NNE 5.2mph /  8.3km/h 12mph /  19.3km/h 60.1% 0in /  0.0mm
11:14 81.1 °F /  27.3 °C 65.5 °F /  18.6 °C 29.9in /  1012.4hPa NE 5.9mph /  9.5km/h 12.5mph /  20.1km/h 59% 0in /  0.0mm
11:19 81.3 °F /  27.4 °C 64.8 °F /  18.2 °C 29.9in /  1012.4hPa NE 6.8mph /  10.9km/h 13mph /  20.9km/h 57.1% 0in /  0.0mm
11:24 81.9 °F /  27.7 °C 65.5 °F /  18.6 °C 29.9in /  1012.4hPa NNE 7.4mph /  11.9km/h 13mph /  20.9km/h 57.9% 0in /  0.0mm
11:29 82.4 °F /  28 °C 66.6 °F /  19.2 °C 29.9in /  1012.4hPa NE 6.8mph /  10.9km/h 14mph /  22.5km/h 59% 0in /  0.0mm
11:34 82.6 °F /  28.1 °C 66.4 °F /  19.1 °C 29.9in /  1012.4hPa NNE 6.4mph /  10.3km/h 15mph /  24.1km/h 58.4% 0in /  0.0mm
11:39 82.6 °F /  28.1 °C 66.7 °F /  19.3 °C 29.9in /  1012.5hPa NNE 7.7mph /  12.4km/h 15.2mph /  24.5km/h 59% 0in /  0.0mm
11:44 82.6 °F /  28.1 °C 66.7 °F /  19.3 °C 29.9in /  1012.5hPa NE 8.7mph /  14km/h 15mph /  24.1km/h 59% 0in /  0.0mm
11:49 82.6 °F /  28.1 °C 66.9 °F /  19.4 °C 29.9in /  1012.5hPa NE 9mph /  14.5km/h 15mph /  24.1km/h 59.1% 0in /  0.0mm
11:54 82.9 °F /  28.3 °C 66.6 °F /  19.2 °C 29.9in /  1012.5hPa NE 9.2mph /  14.8km/h 14mph /  22.5km/h 58.1% 0in /  0.0mm
11:59 83.3 °F /  28.5 °C 66.9 °F /  19.4 °C 29.9in /  1012.5hPa NNE 8.9mph /  14.3km/h 14mph /  22.5km/h 58% 0in /  0.0mm
12:04 83.7 °F /  28.7 °C 67.6 °F /  19.8 °C 29.9in /  1012.5hPa NE 8.7mph /  14km/h 15.6mph /  25.1km/h 58.9% 0in /  0.0mm
12:09 83.7 °F /  28.7 °C 67.5 °F /  19.7 °C 29.9in /  1012.5hPa NE 9mph /  14.5km/h 16.1mph /  25.9km/h 58.2% 0in /  0.0mm
12:14 83.7 °F /  28.7 °C 67.1 °F /  19.5 °C 29.9in /  1012.5hPa NNE 9.2mph /  14.8km/h 18.4mph /  29.6km/h 57.4% 0in /  0.0mm
12:19 83.7 °F /  28.7 °C 66.9 °F /  19.4 °C 29.9in /  1012.5hPa NE 9.5mph /  15.3km/h 18mph /  29km/h 57.1% 0in /  0.0mm
12:24 84 °F /  28.9 °C 66.7 °F /  19.3 °C 29.9in /  1012.5hPa NE 9.7mph /  15.6km/h 17.3mph /  27.8km/h 56.4% 0in /  0.0mm
12:29 83.8 °F /  28.8 °C 66.7 °F /  19.3 °C 29.9in /  1012.5hPa NE 9.9mph /  15.9km/h 17mph /  27.4km/h 56.5% 0in /  0.0mm
12:34 84 °F /  28.9 °C 67.3 °F /  19.6 °C 29.9in /  1012.5hPa NNE 10mph /  16.1km/h 16.3mph /  26.2km/h 57.1% 0in /  0.0mm
12:39 84 °F /  28.9 °C 67.3 °F /  19.6 °C 29.9in /  1012.5hPa NE 9.8mph /  15.8km/h 16.1mph /  25.9km/h 57.1% 0in /  0.0mm
12:44 84 °F /  28.9 °C 67.5 °F /  19.7 °C 29.9in /  1012.4hPa NE 9.7mph /  15.6km/h 16mph /  25.7km/h 57.6% 0in /  0.0mm
12:49 84.2 °F /  29 °C 67.3 °F /  19.6 °C 29.9in /  1012.4hPa NE 9.7mph /  15.6km/h 18.1mph /  29.1km/h 57.2% 0in /  0.0mm
12:54 84 °F /  28.9 °C 67.1 °F /  19.5 °C 29.9in /  1012.5hPa NE 9.7mph /  15.6km/h 18.4mph /  29.6km/h 57% 0in /  0.0mm
12:59 84.2 °F /  29 °C 67.6 °F /  19.8 °C 29.9in /  1012.5hPa NE 9.4mph /  15.1km/h 18mph /  29km/h 57.9% 0in /  0.0mm
13:04 84.4 °F /  29.1 °C 68.4 °F /  20.2 °C 29.9in /  1012.5hPa NE 9.2mph /  14.8km/h 15mph /  24.1km/h 58.6% 0in /  0.0mm
13:09 84.7 °F /  29.3 °C 68 °F /  20 °C 29.9in /  1012.5hPa NE 9.5mph /  15.3km/h 16.1mph /  25.9km/h 57.3% 0in /  0.0mm
13:14 84.7 °F /  29.3 °C 67.8 °F /  19.9 °C 29.9in /  1012.5hPa NE 9.7mph /  15.6km/h 16.1mph /  25.9km/h 57.1% 0in /  0.0mm
13:19 84.9 °F /  29.4 °C 67.6 °F /  19.8 °C 29.9in /  1012.5hPa NE 9.4mph /  15.1km/h 16mph /  25.7km/h 56.1% 0in /  0.0mm
13:24 85.3 °F /  29.6 °C 67.6 °F /  19.8 °C 29.9in /  1012.5hPa NE 9.2mph /  14.8km/h 15mph /  24.1km/h 56% 0in /  0.0mm
13:29 84.9 °F /  29.4 °C 67.5 °F /  19.7 °C 29.9in /  1012.5hPa NE 9.2mph /  14.8km/h 16.3mph /  26.2km/h 56% 0in /  0.0mm
13:34 84.9 °F /  29.4 °C 67.3 °F /  19.6 °C 29.9in /  1012.5hPa NE 9.2mph /  14.8km/h 16mph /  25.7km/h 55.7% 0in /  0.0mm
13:39 85.3 °F /  29.6 °C 67.5 °F /  19.7 °C 29.9in /  1012.5hPa NE 8.9mph /  14.3km/h 15.2mph /  24.5km/h 55.2% 0in /  0.0mm
13:44 85.5 °F /  29.7 °C 67.3 °F /  19.6 °C 29.9in /  1012.5hPa NE 8.7mph /  14km/h 15.2mph /  24.5km/h 54.7% 0in /  0.0mm
13:49 85.5 °F /  29.7 °C 67.3 °F /  19.6 °C 29.9in /  1012.5hPa NE 8.7mph /  14km/h 16.3mph /  26.2km/h 54.5% 0in /  0.0mm
13:54 85.5 °F /  29.7 °C 67.5 °F /  19.7 °C 29.9in /  1012.5hPa NE 8.7mph /  14km/h 16.1mph /  25.9km/h 55% 0in /  0.0mm
13:59 85.6 °F /  29.8 °C 67.5 °F /  19.7 °C 29.9in /  1012.4hPa NNE 9.3mph /  14.9km/h 16mph /  25.7km/h 54.8% 0in /  0.0mm
14:04 85.6 °F /  29.8 °C 67.3 °F /  19.6 °C 29.9in /  1012.4hPa NE 9.7mph /  15.6km/h 16.3mph /  26.2km/h 54.2% 0in /  0.0mm
14:09 85.6 °F /  29.8 °C 67.5 °F /  19.7 °C 29.9in /  1012.4hPa NE 9.4mph /  15.1km/h 16mph /  25.7km/h 54.6% 0in /  0.0mm
14:14 86 °F /  30 °C 67.5 °F /  19.7 °C 29.9in /  1012.4hPa NE 9.2mph /  14.8km/h 16.1mph /  25.9km/h 54.1% 0in /  0.0mm
14:19 86 °F /  30 °C 67.3 °F /  19.6 °C 29.9in /  1012.4hPa NE 8.9mph /  14.3km/h 17.8mph /  28.6km/h 53.6% 0in /  0.0mm
14:24 86 °F /  30 °C 66.7 °F /  19.3 °C 29.9in /  1012.4hPa NE 8.7mph /  14km/h 18.4mph /  29.6km/h 52.8% 0in /  0.0mm
14:29 85.8 °F /  29.9 °C 67.1 °F /  19.5 °C 29.9in /  1012.3hPa NE 9.5mph /  15.3km/h 18mph /  29km/h 53.5% 0in /  0.0mm
14:34 85.6 °F /  29.8 °C 67.1 °F /  19.5 °C 29.9in /  1012.3hPa NE 10mph /  16.1km/h 18.5mph /  29.8km/h 54.1% 0in /  0.0mm
14:39 85.5 °F /  29.7 °C 67.1 °F /  19.5 °C 29.9in /  1012.3hPa NE 10.7mph /  17.3km/h 19mph /  30.6km/h 54.2% 0in /  0.0mm
14:44 85.6 °F /  29.8 °C 67.5 °F /  19.7 °C 29.9in /  1012.3hPa NE 11.2mph /  18km/h 17mph /  27.4km/h 54.4% 0in /  0.0mm
14:49 86 °F /  30 °C 66.6 °F /  19.2 °C 29.9in /  1012.3hPa NE 10.6mph /  17km/h 18.1mph /  29.1km/h 52.6% 0in /  0.0mm
14:54 85.8 °F /  29.9 °C 66.9 °F /  19.4 °C 29.9in /  1012.3hPa NE 10mph /  16.1km/h 18.4mph /  29.6km/h 53.5% 0in /  0.0mm
14:59 86.2 °F /  30.1 °C 67.1 °F /  19.5 °C 29.9in /  1012.3hPa NE 9.5mph /  15.3km/h 18mph /  29km/h 53.1% 0in /  0.0mm
15:04 86.2 °F /  30.1 °C 67.1 °F /  19.5 °C 29.9in /  1012.3hPa NE 9.2mph /  14.8km/h 18.4mph /  29.6km/h 53% 0in /  0.0mm
15:09 86.4 °F /  30.2 °C 66.9 °F /  19.4 °C 29.9in /  1012.3hPa NE 9.7mph /  15.6km/h 18.1mph /  29.1km/h 52.6% 0in /  0.0mm
15:14 86.2 °F /  30.1 °C 66.2 °F /  19 °C 29.9in /  1012.2hPa NE 10mph /  16.1km/h 18.4mph /  29.6km/h 51.4% 0in /  0.0mm
15:19 86.4 °F /  30.2 °C 66.4 °F /  19.1 °C 29.9in /  1012.2hPa NE 10.4mph /  16.8km/h 18mph /  29km/h 51.7% 0in /  0.0mm
15:24 86.4 °F /  30.2 °C 66.4 °F /  19.1 °C 29.9in /  1012.3hPa NE 10.7mph /  17.2km/h 19.6mph /  31.5km/h 51.6% 0in /  0.0mm
15:29 86 °F /  30 °C 66.4 °F /  19.1 °C 29.9in /  1012.3hPa NE 10.7mph /  17.2km/h 20mph /  32.2km/h 52.2% 0in /  0.0mm
15:34 86 °F /  30 °C 66.4 °F /  19.1 °C 29.9in /  1012.3hPa NE 10.7mph /  17.2km/h 21.3mph /  34.3km/h 52% 0in /  0.0mm
15:39 86.4 °F /  30.2 °C 66 °F /  18.9 °C 29.9in /  1012.3hPa NE 10.7mph /  17.2km/h 21mph /  33.8km/h 51% 0in /  0.0mm
15:44 86.4 °F /  30.2 °C 66 °F /  18.9 °C 29.9in /  1012.3hPa NE 10.7mph /  17.2km/h 20.7mph /  33.3km/h 50.8% 0in /  0.0mm
15:49 86.2 °F /  30.1 °C 66.2 °F /  19 °C 29.9in /  1012.3hPa NE 11.1mph /  17.9km/h 21mph /  33.8km/h 51.4% 0in /  0.0mm
15:54 86.2 °F /  30.1 °C 66.9 °F /  19.4 °C 29.9in /  1012.3hPa NE 11.4mph /  18.3km/h 16.8mph /  27km/h 52.8% 0in /  0.0mm
15:59 86.4 °F /  30.2 °C 66.7 °F /  19.3 °C 29.9in /  1012.2hPa NE 10.6mph /  17km/h 20.7mph /  33.3km/h 52.1% 0in /  0.0mm
16:04 86.2 °F /  30.1 °C 66.4 °F /  19.1 °C 29.9in /  1012.2hPa NE 10mph /  16.1km/h 21mph /  33.8km/h 51.9% 0in /  0.0mm
16:09 86.2 °F /  30.1 °C 66.7 °F /  19.3 °C 29.9in /  1012.2hPa NE 10.4mph /  16.8km/h 19mph /  30.6km/h 52.4% 0in /  0.0mm
16:14 86.4 °F /  30.2 °C 67.1 °F /  19.5 °C 29.9in /  1012.2hPa NE 10.7mph /  17.2km/h 18.5mph /  29.8km/h 52.8% 0in /  0.0mm
16:19 86 °F /  30 °C 66.9 °F /  19.4 °C 29.9in /  1012.2hPa NE 10.7mph /  17.2km/h 19mph /  30.6km/h 53.3% 0in /  0.0mm
16:24 85.8 °F /  29.9 °C 67.3 °F /  19.6 °C 29.9in /  1012.2hPa NE 10.7mph /  17.2km/h 17.3mph /  27.8km/h 53.9% 0in /  0.0mm
16:29 86.2 °F /  30.1 °C 67.1 °F /  19.5 °C 29.9in /  1012.2hPa NE 10.7mph /  17.2km/h 17.3mph /  27.8km/h 53.1% 0in /  0.0mm
16:34 85.8 °F /  29.9 °C 67.5 °F /  19.7 °C 29.9in /  1012.2hPa NE 10.7mph /  17.2km/h 17.5mph /  28.2km/h 54.2% 0in /  0.0mm
16:39 85.6 °F /  29.8 °C 67.8 °F /  19.9 °C 29.9in /  1012.2hPa NE 11.4mph /  18.3km/h 17.5mph /  28.2km/h 55.2% 0in /  0.0mm
16:44 85.5 °F /  29.7 °C 67.5 °F /  19.7 °C 29.9in /  1012.1hPa NE 11.8mph /  19km/h 19mph /  30.6km/h 54.9% 0in /  0.0mm
16:49 85.5 °F /  29.7 °C 68 °F /  20 °C 29.9in /  1012.1hPa NE 12.1mph /  19.5km/h 19.7mph /  31.7km/h 56.1% 0in /  0.0mm
16:54 85.5 °F /  29.7 °C 68.4 °F /  20.2 °C 29.9in /  1012.1hPa NE 12.3mph /  19.8km/h 20mph /  32.2km/h 56.7% 0in /  0.0mm
16:59 85.6 °F /  29.8 °C 67.8 °F /  19.9 °C 29.9in /  1012.0hPa ENE 11.1mph /  17.9km/h 19mph /  30.6km/h 55.3% 0in /  0.0mm
17:04 85.6 °F /  29.8 °C 67.8 °F /  19.9 °C 29.9in /  1012.0hPa NE 10.2mph /  16.4km/h 17.5mph /  28.2km/h 55.4% 0in /  0.0mm
17:09 85.1 °F /  29.5 °C 68 °F /  20 °C 29.9in /  1012.1hPa NE 10.8mph /  17.4km/h 19.6mph /  31.5km/h 56.7% 0in /  0.0mm
17:14 84.7 °F /  29.3 °C 68.5 °F /  20.3 °C 29.9in /  1012.1hPa NE 11.2mph /  18km/h 23mph /  37km/h 58.5% 0in /  0.0mm
17:19 84.7 °F /  29.3 °C 68.5 °F /  20.3 °C 29.9in /  1012.1hPa NE 11.9mph /  19.1km/h 23.5mph /  37.8km/h 58.3% 0in /  0.0mm
17:24 84.7 °F /  29.3 °C 68.5 °F /  20.3 °C 29.9in /  1012.1hPa NE 12.3mph /  19.8km/h 23mph /  37km/h 58.3% 0in /  0.0mm
17:29 84.9 °F /  29.4 °C 68 °F /  20 °C 29.9in /  1012.0hPa NE 11.4mph /  18.4km/h 21.3mph /  34.3km/h 57.2% 0in /  0.0mm
17:34 84.7 °F /  29.3 °C 67.8 °F /  19.9 °C 29.9in /  1012.0hPa NE 10.7mph /  17.2km/h 21mph /  33.8km/h 57% 0in /  0.0mm
17:39 84.6 °F /  29.2 °C 67.8 °F /  19.9 °C 29.9in /  1012.0hPa NE 11.4mph /  18.3km/h 19mph /  30.6km/h 57.4% 0in /  0.0mm
17:44 84.6 °F /  29.2 °C 68.2 °F /  20.1 °C 29.9in /  1012.0hPa NE 11.8mph /  19km/h 19.7mph /  31.7km/h 58% 0in /  0.0mm
17:49 84.4 °F /  29.1 °C 68.4 °F /  20.2 °C 29.9in /  1012.0hPa NE 12.1mph /  19.5km/h 21.3mph /  34.3km/h 58.8% 0in /  0.0mm
17:54 84.6 °F /  29.2 °C 68.2 °F /  20.1 °C 29.9in /  1012.0hPa NE 12.3mph /  19.8km/h 23.5mph /  37.8km/h 58% 0in /  0.0mm
17:59 84.4 °F /  29.1 °C 68 °F /  20 °C 29.9in /  1012.0hPa NE 11.7mph /  18.9km/h 23mph /  37km/h 58% 0in /  0.0mm
18:04 84.4 °F /  29.1 °C 68 °F /  20 °C 29.9in /  1012.0hPa NE 11.4mph /  18.4km/h 17.3mph /  27.8km/h 58% 0in /  0.0mm
18:09 84.4 °F /  29.1 °C 68.2 °F /  20.1 °C 29.9in /  1012.0hPa NE 11.4mph /  18.4km/h 20.7mph /  33.3km/h 58.4% 0in /  0.0mm
18:14 84 °F /  28.9 °C 67.8 °F /  19.9 °C 29.9in /  1011.9hPa NE 11.4mph /  18.4km/h 21mph /  33.8km/h 58.1% 0in /  0.0mm
18:19 83.8 °F /  28.8 °C 67.3 °F /  19.6 °C 29.9in /  1011.9hPa NE 11.4mph /  18.4km/h 20.7mph /  33.3km/h 57.4% 0in /  0.0mm
18:24 83.8 °F /  28.8 °C 67.5 °F /  19.7 °C 29.9in /  1011.9hPa NE 11.4mph /  18.4km/h 21mph /  33.8km/h 57.9% 0in /  0.0mm
18:29 83.8 °F /  28.8 °C 67.3 °F /  19.6 °C 29.9in /  1011.9hPa NE 11.4mph /  18.4km/h 20mph /  32.2km/h 57.4% 0in /  0.0mm
18:34 84.2 °F /  29 °C 67.3 °F /  19.6 °C 29.9in /  1011.9hPa ENE 11.4mph /  18.4km/h 17mph /  27.4km/h 57% 0in /  0.0mm
18:39 84.2 °F /  29 °C 67.1 °F /  19.5 °C 29.9in /  1012.0hPa ENE 9.8mph /  15.8km/h 20.7mph /  33.3km/h 56.7% 0in /  0.0mm
18:44 84 °F /  28.9 °C 66.7 °F /  19.3 °C 29.9in /  1012.0hPa NE 8.7mph /  14km/h 21mph /  33.8km/h 56.3% 0in /  0.0mm
18:49 84 °F /  28.9 °C 66.7 °F /  19.3 °C 29.9in /  1012.0hPa NE 9.3mph /  14.9km/h 15mph /  24.1km/h 56.3% 0in /  0.0mm
18:54 84.6 °F /  29.2 °C 66.7 °F /  19.3 °C 29.9in /  1012.0hPa ENE 9.7mph /  15.6km/h 16.1mph /  25.9km/h 55.4% 0in /  0.0mm
18:59 84.6 °F /  29.2 °C 66.7 °F /  19.3 °C 29.9in /  1011.9hPa ENE 8.2mph /  13.2km/h 16mph /  25.7km/h 55% 0in /  0.0mm
19:04 84.7 °F /  29.3 °C 66.6 °F /  19.2 °C 29.9in /  1011.9hPa NE 7.4mph /  11.9km/h 14mph /  22.5km/h 54.5% 0in /  0.0mm
19:09 84.7 °F /  29.3 °C 66.6 °F /  19.2 °C 29.9in /  1011.9hPa Este 7.1mph /  11.4km/h 15.2mph /  24.5km/h 54.7% 0in /  0.0mm
19:14 84.4 °F /  29.1 °C 66.4 °F /  19.1 °C 29.9in /  1011.9hPa ENE 6.9mph /  11.1km/h 17.3mph /  27.8km/h 55% 0in /  0.0mm
19:19 84 °F /  28.9 °C 66.6 °F /  19.2 °C 29.9in /  1011.9hPa NE 7.9mph /  12.7km/h 17mph /  27.4km/h 55.8% 0in /  0.0mm
19:24 83.8 °F /  28.8 °C 66.7 °F /  19.3 °C 29.9in /  1012.0hPa NE 8.7mph /  14km/h 16mph /  25.7km/h 56.5% 0in /  0.0mm
19:29 83.7 °F /  28.7 °C 66.7 °F /  19.3 °C 29.9in /  1012.0hPa NE 8.3mph /  13.4km/h 16.1mph /  25.9km/h 56.8% 0in /  0.0mm
19:34 83.7 °F /  28.7 °C 67.1 °F /  19.5 °C 29.9in /  1012.0hPa NNE 8.1mph /  13km/h 16mph /  25.7km/h 57.8% 0in /  0.0mm
19:39 83.5 °F /  28.6 °C 68 °F /  20 °C 29.9in /  1012.0hPa NE 8.3mph /  13.4km/h 14mph /  22.5km/h 59.7% 0in /  0.0mm
19:44 83.1 °F /  28.4 °C 68 °F /  20 °C 29.9in /  1012.0hPa NE 8.5mph /  13.7km/h 14mph /  22.5km/h 60.1% 0in /  0.0mm
19:49 82.9 °F /  28.3 °C 67.8 °F /  19.9 °C 29.9in /  1012.0hPa NE 8.6mph /  13.9km/h 15mph /  24.1km/h 60.6% 0in /  0.0mm
19:54 82.9 °F /  28.3 °C 68.7 °F /  20.4 °C 29.9in /  1012.1hPa ENE 8.7mph /  14km/h 15mph /  24.1km/h 62.3% 0in /  0.0mm
19:59 82.8 °F /  28.2 °C 68.9 °F /  20.5 °C 29.9in /  1012.1hPa NE 7.5mph /  12.1km/h 14mph /  22.5km/h 63% 0in /  0.0mm
20:04 82.8 °F /  28.2 °C 68.9 °F /  20.5 °C 29.9in /  1012.1hPa NE 6.9mph /  11.1km/h 10.7mph /  17.2km/h 63% 0in /  0.0mm
20:09 82.8 °F /  28.2 °C 68.7 °F /  20.4 °C 29.9in /  1012.3hPa NE 6.6mph /  10.6km/h 13.8mph /  22.2km/h 63% 0in /  0.0mm
20:14 82.4 °F /  28 °C 68.7 °F /  20.4 °C 29.9in /  1012.3hPa NE 6.4mph /  10.3km/h 15.2mph /  24.5km/h 63.5% 0in /  0.0mm
20:19 82.2 °F /  27.9 °C 68.7 °F /  20.4 °C 29.9in /  1012.3hPa NE 7.6mph /  12.3km/h 15mph /  24.1km/h 64% 0in /  0.0mm
20:24 81.9 °F /  27.7 °C 68.5 °F /  20.3 °C 29.9in /  1012.4hPa NE 8.5mph /  13.7km/h 14mph /  22.5km/h 64% 0in /  0.0mm
20:29 81.9 °F /  27.7 °C 68.4 °F /  20.2 °C 29.9in /  1012.4hPa NE 8.6mph /  13.9km/h 14mph /  22.5km/h 64% 0in /  0.0mm
20:34 81.7 °F /  27.6 °C 68.4 °F /  20.2 °C 29.9in /  1012.4hPa NE 8.7mph /  14km/h 14mph /  22.5km/h 64.1% 0in /  0.0mm
20:39 81.3 °F /  27.4 °C 68.4 °F /  20.2 °C 29.9in /  1012.5hPa NE 9mph /  14.5km/h 15mph /  24.1km/h 65% 0in /  0.0mm
20:44 81.3 °F /  27.4 °C 68.4 °F /  20.2 °C 29.9in /  1012.5hPa NE 9.2mph /  14.8km/h 15mph /  24.1km/h 65% 0in /  0.0mm
20:49 81.3 °F /  27.4 °C 68.4 °F /  20.2 °C 29.9in /  1012.5hPa NE 8.2mph /  13.2km/h 13mph /  20.9km/h 65% 0in /  0.0mm
20:54 81.1 °F /  27.3 °C 68.5 °F /  20.3 °C 29.9in /  1012.5hPa NE 7.4mph /  11.9km/h 12.7mph /  20.4km/h 65.4% 0in /  0.0mm
20:59 81 °F /  27.2 °C 68.9 °F /  20.5 °C 29.9in /  1012.5hPa NE 7.1mph /  11.4km/h 13mph /  20.9km/h 66.8% 0in /  0.0mm
21:04 81 °F /  27.2 °C 68.9 °F /  20.5 °C 29.9in /  1012.5hPa NE 6.9mph /  11.1km/h 12.5mph /  20.1km/h 67% 0in /  0.0mm
21:09 80.6 °F /  27 °C 69.1 °F /  20.6 °C 29.9in /  1012.6hPa NE 7.2mph /  11.6km/h 13.8mph /  22.2km/h 67.8% 0in /  0.0mm
21:14 80.4 °F /  26.9 °C 69.3 °F /  20.7 °C 29.9in /  1012.6hPa NE 7.4mph /  11.9km/h 14mph /  22.5km/h 69% 0in /  0.0mm
21:19 80.2 °F /  26.8 °C 69.4 °F /  20.8 °C 29.9in /  1012.6hPa NE 7.5mph /  12.1km/h 13mph /  20.9km/h 69.8% 0in /  0.0mm
21:24 80.1 °F /  26.7 °C 69.4 °F /  20.8 °C 29.9in /  1012.8hPa NE 7.6mph /  12.2km/h 11.5mph /  18.5km/h 70% 0in /  0.0mm
21:29 79.9 °F /  26.6 °C 69.6 °F /  20.9 °C 29.9in /  1012.8hPa NE 7.1mph /  11.5km/h 12mph /  19.3km/h 71% 0in /  0.0mm
21:34 79.9 °F /  26.6 °C 69.6 °F /  20.9 °C 29.9in /  1012.8hPa NE 6.9mph /  11.1km/h 9.2mph /  14.8km/h 71% 0in /  0.0mm
21:39 79.7 °F /  26.5 °C 69.4 °F /  20.8 °C 29.9in /  1012.9hPa NE 6mph /  9.7km/h 9mph /  14.5km/h 71% 0in /  0.0mm
21:44 79.5 °F /  26.4 °C 69.6 °F /  20.9 °C 29.9in /  1012.9hPa NE 5.4mph /  8.7km/h 9.2mph /  14.8km/h 71.7% 0in /  0.0mm
21:49 79.3 °F /  26.3 °C 69.6 °F /  20.9 °C 29.9in /  1012.9hPa NE 5mph /  8.1km/h 9.7mph /  15.6km/h 72% 0in /  0.0mm
21:54 79.3 °F /  26.3 °C 69.8 °F /  21 °C 29.9in /  1013.2hPa NE 4.7mph /  7.6km/h 10mph /  16.1km/h 72.9% 0in /  0.0mm
21:59 79.2 °F /  26.2 °C 69.8 °F /  21 °C 29.9in /  1013.2hPa NE 4.5mph /  7.2km/h 8.5mph /  13.7km/h 73% 0in /  0.0mm
22:04 79.2 °F /  26.2 °C 70.2 °F /  21.2 °C 29.9in /  1013.2hPa NE 4.3mph /  6.9km/h 9mph /  14.5km/h 74% 0in /  0.0mm
22:09 79 °F /  26.1 °C 70.2 °F /  21.2 °C 29.9in /  1013.2hPa NE 4.8mph /  7.8km/h 8mph /  12.9km/h 74.7% 0in /  0.0mm
22:14 78.6 °F /  25.9 °C 70.2 °F /  21.2 °C 29.9in /  1013.2hPa ENE 5.2mph /  8.4km/h 8.1mph /  13km/h 75% 0in /  0.0mm
22:19 78.6 °F /  25.9 °C 70.3 °F /  21.3 °C 29.9in /  1013.2hPa NE 4.7mph /  7.5km/h 8mph /  12.9km/h 75.8% 0in /  0.0mm
22:24 78.4 °F /  25.8 °C 70.3 °F /  21.3 °C 29.9in /  1013.5hPa NE 4.3mph /  6.9km/h 7mph /  11.3km/h 76% 0in /  0.0mm
22:29 78.4 °F /  25.8 °C 70.2 °F /  21.2 °C 29.9in /  1013.5hPa NE 4.1mph /  6.6km/h 7.4mph /  11.9km/h 76.1% 0in /  0.0mm
22:34 78.4 °F /  25.8 °C 70.5 °F /  21.4 °C 29.9in /  1013.5hPa NE 4mph /  6.5km/h 7mph /  11.3km/h 77% 0in /  0.0mm
22:39 78.3 °F /  25.7 °C 70.5 °F /  21.4 °C 29.9in /  1013.6hPa NE 4mph /  6.5km/h 8.5mph /  13.7km/h 77% 0in /  0.0mm
22:44 78.3 °F /  25.7 °C 70.5 °F /  21.4 °C 29.9in /  1013.6hPa ENE 4mph /  6.5km/h 9mph /  14.5km/h 77% 0in /  0.0mm
22:49 78.3 °F /  25.7 °C 70.7 °F /  21.5 °C 29.9in /  1013.6hPa NE 3.5mph /  5.6km/h 6mph /  9.7km/h 77.5% 0in /  0.0mm
22:54 78.3 °F /  25.7 °C 70.7 °F /  21.5 °C 29.9in /  1013.8hPa NE 3.1mph /  5km/h 6.2mph /  10km/h 78% 0in /  0.0mm
22:59 78.1 °F /  25.6 °C 70.7 °F /  21.5 °C 29.9in /  1013.8hPa NNE 3.7mph /  5.9km/h 6.2mph /  10km/h 78.4% 0in /  0.0mm
23:04 77.7 °F /  25.4 °C 70.7 °F /  21.5 °C 29.9in /  1013.8hPa NE 4mph /  6.5km/h 6.9mph /  11.1km/h 79% 0in /  0.0mm
23:09 77.7 °F /  25.4 °C 70.7 °F /  21.5 °C 29.9in /  1013.9hPa NE 4.2mph /  6.7km/h 9.7mph /  15.6km/h 79.2% 0in /  0.0mm
23:14 77.7 °F /  25.4 °C 71.1 °F /  21.7 °C 29.9in /  1013.9hPa NE 4.3mph /  6.9km/h 10mph /  16.1km/h 80% 0in /  0.0mm
23:19 77.5 °F /  25.3 °C 70.9 °F /  21.6 °C 29.9in /  1013.9hPa NE 4.3mph /  6.9km/h 6.2mph /  10km/h 80% 0in /  0.0mm
23:24 77.5 °F /  25.3 °C 70.9 °F /  21.6 °C 29.9in /  1013.9hPa NE 4.3mph /  6.9km/h 6.2mph /  10km/h 80.1% 0in /  0.0mm
23:29 77.4 °F /  25.2 °C 71.1 °F /  21.7 °C 29.9in /  1013.9hPa NE 4.2mph /  6.7km/h 6.9mph /  11.1km/h 81% 0in /  0.0mm
23:34 77.4 °F /  25.2 °C 71.1 °F /  21.7 °C 29.9in /  1013.9hPa NE 4mph /  6.5km/h 9.7mph /  15.6km/h 81% 0in /  0.0mm
23:39 77.2 °F /  25.1 °C 71.2 °F /  21.8 °C 29.9in /  1013.9hPa NE 5.1mph /  8.2km/h 10mph /  16.1km/h 82% 0in /  0.0mm
23:44 77.2 °F /  25.1 °C 71.2 °F /  21.8 °C 29.9in /  1013.8hPa NE 5.9mph /  9.5km/h 9mph /  14.5km/h 82% 0in /  0.0mm
23:49 77.2 °F /  25.1 °C 71.2 °F /  21.8 °C 29.9in /  1013.8hPa NNE 5.5mph /  8.8km/h 8.1mph /  13km/h 82% 0in /  0.0mm
23:54 77 °F /  25 °C 71.1 °F /  21.7 °C 29.9in /  1013.8hPa NNE 5.2mph /  8.4km/h 8.1mph /  13km/h 82% 0in /  0.0mm
23:59 76.8 °F /  24.9 °C 71.2 °F /  21.8 °C 29.9in /  1013.8hPa NNE 4.7mph /  7.5km/h 8mph /  12.9km/h 82.7% 0in /  0.0mm
Murcia-Puente Tocinos, España
Compliments of Weather Underground - 3 mb

La estación de MeteoMurcia.com, publica sus datos en los siguientes proyectos:

Weather Underground PWS IMURCIAP2 Meteoclimatic www.awekas.at

W3Counter
Web Analytics